Timeline UpdatesTrip UpdatesNews PostsPvt PostsTravel TipsAdmin PostsConv PostsFollowed PostsChat RequestsBlog PostsPNR Posts

Disclaimer
Search
 
 
Wed Apr 23, 2014 19:01:52 ISTHomeTrainsΣChainsAtlasPNRForumGalleryNewsFAQTripsMembersLoginFeedback
No Recent News for this Train
Other Trains in the News **new
Latest...
.
Tue Sep 17, 2013 (06:26PM)
⇐ Return Journey: Train# 58002

58001/Howrah-Puri Passenger (UnReserved)

Sep 18 2013 (6:25AM)
Change Departure Station:
Change Arrival Station:
Post a Train Travel TipPost a Train Travel Tip **new
Post a Comment/Question/Picture/VideoPost a Comment/Question/Picture/Video
Pantry/Catering
✕ NO Pantry Car
✓ Catering Avbl
RSA - Rake Sharing
58003-58004-58001-58002; Entry# 405717
Rake/Coach Composition
Only unreserved accommodation
Loco
SRC WAP-4
News    PNR    Forum    Time-Table    Availability    Fare Chart    Map    Arr/Dep History    Trips    Gallery    ΣChains    X/O    Timeline    
Travel Time: 9h 58m    56 halts    Distance: 353 km    Avg Speed: 35 km/hr
Type: Passenger
Zone: SER/South Eastern
Departs @ 23:50 (Avg 16m late)
Platform# 17
SMTWTFS
Kolkata Howrah Junction/HWH 
Arrives @ 09:48 +1 night (Avg 26m late)
Platform# ???
SMTWTFS
Jenapur/JEN 

56 halts. 72 intermediate Stations between Kolkata Howrah Junction and Jenapur

Show ALL intermediate Stations  Show Old Time-Table

#CodeStation NameX/OArrivesAvgDepartsAvgHaltPFDay#KmSpeedElevZoneAddress
1HWH»Kolkata Howrah Junction (23)»  -23:50+161710.02210mERHowrah 711101, West Bengal
2RMJRamrajatala (4)  00:06+2400:07+241m--25.9177mSERHowrah, West Bengal
3SRCKolkata Santragachi Junction (6)  00:12+2200:13+221m227.3407mSERDist: Howrah - 711104, West Bengal
4ADLAndul (5)  00:20+2400:21+241m--212.06110mSERPin: 711302, West Bengal
5NALRNalpur (4)  00:29+2300:30+231m--220.1375mSERHowrah, West Bengal
6BVABauria Junction  00:36+2200:37+221m--223.8387mSERHowrah, West Bengal
7CGAChengel (5)  00:42+2200:43+221m--226.9318mSERNational Highway 6, West Bengal
8FLRPhuleswarX  00:48+2000:49+201m--229.53010mSERHowrah, West Bengal
9ULBUluberia (6)  00:54+1900:55+191m2232.04010mSERdist - howrah, West Bengal
10BSBPBir Shibpur (4)  01:01+1801:02+181m--236.0525mSERDist: Howrah, West Bengal
11KGYKulgachia  01:06+1901:07+191m--239.5557mSERHowrah, West Bengal
12BZNBagnan (4)  01:13+1901:14+201m--244.9498mSERBagnan, West Bengal
13DTEDeulti  01:21+1901:22+191m--250.7379mSERDeulty, West Bengal
14KIGKolaghat (3)  01:29+1901:30+191m--255.03611mSEREast Medinipore, West Bengal
15MCAMecheda (6)  01:35+1801:36+191m--258.04510mSERdist - purba Medinipur, West Bengal
16BOPBhogpur  01:43+2001:44+201m--263.3617mSERMedinipur, West Bengal
17PKUPanskura Junction (6)X  01:51+2001:52+201m--270.4449mSERPanskura, West Bengal
18KHAIKhirai (3)X  01:59+2002:00+201m--275.65311mSERPaschim Medinipur, West Bengal
19HAURHaurX  02:05+2002:06+201m--280.04412mSERMedinipur, West Bengal
20RDURadhamohanpur (2)X  02:12+1902:13+191m--284.46217mSERDist: West Medinipur, West Bengal
21BCKBalichak (4)  02:19+2002:20+201m--290.64721mSERKharagpur, West Bengal
22SMCKShyam Chak (4)  02:27+2002:28+201m--296.05920mSERDist: West Medinipur, West Bengal
23MPDMadpurO  02:34+2002:35+201m--2101.95827mSERKharagpur, West Bengal
24JPRJakpur (4)X  02:41+1702:42+161m--2107.82328mSERJakpur, West Bengal
25KGPKharagpur Junction (10)  03:00+1103:25+1925m--2114.87342mSERKharagpur, West Bengal
26BLDABeldaX  03:54+3703:55+371m--2150.34424mSERDistrict Paschim Medinipur, West Bengal
27NSINikursini  04:06+3504:07+361m--2158.46424mSERNikursini, West Bengal
28DNTDantan  04:15+3404:16+351m--2166.94419mSERNational Highway 60, West Bengal
29AGVAngua  04:22+3404:23+351m--2171.35117mSERWest Medinipore, West Bengal
30LXDLakshannath RoadX  04:30+3404:31+341m--2177.34617mSERDist. Balasore, Odisha
31JERJaleswar (4)  04:39+3304:40+331m--2183.44613mSERJaleswar, Odisha
32RGTRajghat Halt  04:50+3004:51+301m--2191.14317mSERRajghat, Odisha
33ARDAmarda RoadX  05:00+3005:01+311m--2197.54611mSERAmarda Road, Odisha
34BTSBasta (3)  05:08+3105:09+311m--2202.94816mSERBasta, Odisha
35NMBRN Mayurbhanj RoadX  05:15+2905:16+301m--2207.74611mSERBaleswar, Odisha
36ROPRupsa Junction (5)  05:23+2905:24+311m--2213.05213mSERRupsa, Odisha
37HIPHaldipada  05:31+3005:32+311m--2219.1519mSERHaldipada, Odisha
38TKPLTikirapal Halt  05:40+2805:41+291m--2225.9338mSERBaleswar, Odisha
39BLSBalasore (4)X  05:50+2605:55+265m12230.97119mSERBalasore, Odisha
40NGRDNilgiri RoadX  06:04+2606:05+261m--2241.54814mSERBaleswar, Odisha
41KHFKhantapara  06:11+2606:12+261m--2246.35015mSERKhantaparha, Odisha
42PNPNPanpana  06:18+2506:19+261m--2251.34415mSERKhantaparha, Odisha
43BNBRBahanaga BazarX  06:25+2606:26+261m--2255.75819mSERBalasore Distt., Odisha
44SOROSoro  06:35+2506:36+251m--2264.36514mSERSoro, Odisha
45SZZSabira  06:44-06:45-1m--2273.05214mSERNational Highway 5, Odisha
46MKOMarkonaX  06:52+2406:53+241m--2279.15518mSERMarkuna, Odisha
47RNTLRanitalX  07:00+3307:01+331m--2285.52022mSERBhadrak, Odisha
48BHCBhadrak (4)  07:25+3407:30+375m--2293.34323mECoRBhadrak, Odisha
49BUDRBaudpur  07:39+3907:40+431m--2299.85221mECoRBhadrak, Odisha
50KPLDKapali Road  07:45+4307:46+431m--2304.17120mECoRKantia, Odisha
51KEDKenduapadaXO  07:50+4407:51+471m--2308.86923mECoRBhadrak, Odisha
52MZZManjuri Road  07:57+4907:58+521m--2315.74828mECoRBhadrak, Odisha
53DLPTDulakhapatnaX  08:03+4908:04+491m--2319.74727mECoRBandalo, Odisha
54BTVBaitarani RoadX  08:11+5008:12+541m--2325.15927mECoRBaitarani, Odisha
55KRIHKorai HaltXO  08:19+5308:20+541m--2332.0430mECoRJajapur, Odisha
56JJKRJajpur Keonjhar Road (4)X  09:29+809:30+191m--2337.09336mECoRJajpur, Odisha
57JKPRJakhapura  09:35+2409:36+271m--2344.73919mECoRJajpur, Odisha
58JEN•Jenapur•  09:48+2609:49+301m--2352.65023mECoRNational Highway 200, Odisha
59NGMPNew Garh MadhopurX  09:56+3009:57+301m--2358.56628mECoRGarh Madhopur, Odisha
60HDSHaridaspur  10:06+3010:07+311m--2368.36130mECoRDhanmandal, Odisha
61DNMDhanmandal (3)X  10:12+3410:13+411m--2373.47638mECoRDhanmanda, Odisha
62BRTGBarithengarhXO  10:18+4310:19+431m--2379.8625mECoRCuttack, Odisha
63BYYByree  11:05+1011:06+141m--2384.24833mECoRBairi, Odisha
64SJDRSri Jhadeshwar Road  11:11+1411:12+141m--2388.15830mECoRNational Highway 5, Odisha
65KISKapilas Road Junction  11:18+1411:19+241m--2394.03824mECoRTangi, Odisha
66SQQSalagaon  11:26+3011:27+321m--2398.41729mECoRCuttack, Odisha
67CBTCharbatia  11:44+2611:45+301m--2403.37835mECoRCuttack, Odisha
68BDPGBada Padagaon  11:48+2911:49+291m--2407.22931mECoRCuttack, Odisha
69GJTAGurudijhatia  11:59+2812:00+341m--2412.06233mECoRGurudijhat, Odisha
70MZYMachapur  12:06+3812:07+381m--2418.12248mECoRKapilash Rd, Odisha
71RQPRadhakishorepur  12:13+3912:14+411m--2420.37251mECoRNational Highway 42, Odisha
72GHNHGhantakhal Nidhipur  12:19+4812:20+1:021m--2426.33139mECoRCuttack, Odisha
73NQRNaraj MarthapurX  12:35+1:0012:36+1:181m--2434.05329mECoRCuttack, Odisha
74BRAGBarangX  12:46+1:2112:47+1:241m--2442.94127mECoRDist - Cuttack, Odisha
75MCSMancheswar  13:00+1:2613:01+1:281m--2451.82927mECoRMancheswar, Odisha
76BBSBhubaneswar (4)X  13:15+1:1813:20+1:185m42458.65440mECoRBhubaneshwar ph.no. 0674-2532233, Odisha
77LGTRLingaraj Temple Road  13:25+1:2813:26+1:281m--2463.110639mECoRBhubaneswar, Odisha
78RTNRetangXO  13:30+1:3113:31+1:311m--2470.1419mECoRKhurdha, Odisha
79KURKhurda Road Junction (7)  15:15+2015:25+2210m--2477.52325mECoRKhordha, Odisha
80HPGMHaripur GramX  15:32+1715:33+201m--2480.14622mECoRKhordha, Odisha
81MWQMotari Halt  15:40+1715:41+201m--2485.54212mECoRMotari, Odisha
82KASRKanas Road  15:46+1915:47+211m--2489.0229mECoRKhordha, Odisha
83DEGDelang  15:57+1515:58+261m--2492.7369mECoRKhordha, Odisha
84JPRDJenapur RoadXO  16:03-16:04-1m--2495.74510mECoRKhordha, Odisha
85BRSTBir Purushottampur  16:09+2516:10+381m--2499.46712mECoRSatasankha, Odisha
86SILSakhi Gopal (3)O  16:15+4016:16+401m--2505.06010mECoRPuri, Odisha
87JKDPJankidaipur  16:22+3916:23+391m--2511.03713mECoRChandanpur, Odisha
88MLTMalatipatpur (1)  16:28+3816:29+521m12514.1315mECoRPuri, Odisha
89PURIPuri (5)  19:00+19---2521.4-12mECoRPuri, Odisha
Scroll to Top
Scroll to Bottom